Flight Track Log - Related Links

Times and Time Zones

All times are in EDT time to prevent confusion due to time zone crossing. See the ASA802 flight status page for this flight to view local times or setup timezone preferences in your user account.

Time Position Orientation Groundspeed Altitude Reporting Facility
EDT Latitude Longitude Course Direction KTS MPH feet Rate Location/Type
Sun 05:56:52 PM 19.7833 -156.0500 335° Northwest 190 219 2,200  Level Honolulu Center
Sun 05:57:52 PM 19.8500 -156.0833 335° Northwest 240 276 4,300 2,500 Climbing Honolulu Center
Sun 05:58:52 PM 19.9167 -156.1000 347° North 270 311 7,200 2,777 Climbing Honolulu Center
Sun 05:59:53 PM 20.0000 -156.1333 339° North 280 322 9,900 2,182 Climbing Honolulu Center
Sun 06:00:53 PM 20.0833 -156.1333 360° North 310 357 11,600 1,686 Climbing Honolulu Center
Sun 06:01:54 PM 20.1667 -156.1500 349° North 330 380 13,300 1,686 Climbing Honolulu Center
Sun 06:02:54 PM 20.2667 -156.1500 360° North 370 426 15,000 2,050 Climbing Honolulu Center
Sun 06:03:54 PM 20.4000 -156.1500 360° North 400 460 17,400 2,100 Climbing Honolulu Center
Sun 06:04:54 PM 20.5000 -156.1500 360° North 410 472 19,200 1,736 Climbing Honolulu Center
Sun 06:05:55 PM 20.6333 -156.1667 353° North 420 483 20,900 1,537 Climbing Honolulu Center
Sun 06:06:55 PM 20.7500 -156.1667 360° North 440 506 22,300 1,550 Climbing Honolulu Center
Sun 06:07:55 PM 20.8667 -156.1667 360° North 450 518 24,000 1,686 Climbing Honolulu Center
Sun 06:08:56 PM 21.0000 -156.1833 353° North 450 518 25,700 1,438 Climbing Honolulu Center
Sun 06:09:56 PM 21.1333 -156.1833 360° North 460 529 26,900 1,150 Climbing Honolulu Center
Sun 06:10:56 PM 21.2667 -156.1833 360° North 470 541 28,000 1,190 Climbing Honolulu Center
Sun 06:11:57 PM 21.3833 -156.2000 352° North 470 541 29,300 1,091 Climbing Honolulu Center
Sun 06:12:57 PM 21.5333 -156.2000 360° North 470 541 30,200 744 Climbing Honolulu Center
Sun 06:13:58 PM 21.6667 -156.2000 360° North 490 564 30,800 744 Climbing Honolulu Center
Sun 06:14:58 PM 21.8000 -156.1667 13° North 530 610 31,700 800 Climbing Honolulu Center
Sun 06:15:58 PM 21.9500 -156.1167 17° North 520 598 32,400 893 Climbing Honolulu Center
Sun 06:16:59 PM 22.0833 -156.0833 13° North 530 610 33,500 893 Climbing Honolulu Center
Sun 06:17:59 PM 22.2333 -156.0333 17° North 520 598 34,200 744 Climbing Honolulu Center
Sun 06:19:00 PM 22.3667 -155.9833 19° North 530 610 35,000 397 Climbing Honolulu Center
Sun 06:20:00 PM 22.5167 -155.9500 12° North 530 610 35,000  Level Honolulu Center
Sun 06:21:00 PM 22.6500 -155.9000 19° North 520 598 35,000  Level Honolulu Center
Sun 06:22:01 PM 22.8000 -155.8667 12° North 530 610 35,000  Level Honolulu Center
Sun 06:23:01 PM 22.9333 -155.8167 19° North 530 610 35,000  Level Honolulu Center
Sun 06:24:01 PM 23.0833 -155.7667 17° North 530 610 35,000  Level Honolulu Center
Sun 06:25:02 PM 23.2167 -155.7333 13° North 520 598 35,000  Level Honolulu Center
Sun 06:26:02 PM 23.3667 -155.6833 17° North 540 621 35,000  Level Honolulu Center
Sun 06:27:03 PM 23.5000 -155.6500 13° North 520 598 35,000  Level Honolulu Center
Sun 06:28:03 PM 23.6500 -155.6000 17° North 530 610 35,000  Level Honolulu Center
Sun 06:29:03 PM 23.7500 -155.5667 17° North 520 598 35,000  Level Honolulu Center
Sun 06:38:48 PM 24.7167 -155.2667 44° Northeast 573 659 35,000  Level Oakland Oceanic (ODAPS)
Sun 07:27:18 PM 30.0500 -149.0833 47° Northeast 531 611 35,000  Level Oakland Oceanic (ODAPS)
Sun 08:20:53 PM 35.0000 -142.3500 51° Northeast 518 596 35,000  Level Oakland Oceanic (ODAPS)
Sun 09:12:49 PM 39.4167 -134.9667 55° Northeast 518 596 35,000  Level Oakland Oceanic (ODAPS)
Sun 09:58:15 PM 43.1078 -127.1547 55° Northeast 507 583 35,000  Level Seattle Center
Sun 09:59:00 PM 43.2298 -126.8554 61° Northeast 518 596 35,000  Level FlightAware Transoceanic
Sun 09:59:16 PM 43.1767 -126.9853 61° Northeast 506 582 35,000  Level Seattle Center
Sun 10:00:00 PM 43.3000 -126.6833 55° Northeast 518 596 35,000  Level FlightAware Transoceanic
Sun 10:00:17 PM 43.2425 -126.8219 61° Northeast 505 581 35,000  Level Seattle Center
Sun 10:01:00 PM 43.3819 -126.5231 55° Northeast 518 596 35,000  Level FlightAware Transoceanic
Sun 10:01:18 PM 43.3117 -126.6561 60° Northeast 503 579 35,000  Level Seattle Center
Sun 10:02:00 PM 43.4636 -126.3624 55° Northeast 518 596 35,000  Level FlightAware Transoceanic
Sun 10:02:19 PM 43.3914 -126.5006 55° Northeast 503 579 35,000  Level Seattle Center
Sun 10:03:00 PM 43.5451 -126.2013 55° Northeast 518 596 35,000  Level FlightAware Transoceanic
Sun 10:03:19 PM 43.4706 -126.3442 55° Northeast 502 578 35,000  Level Seattle Center
Sun 10:04:20 PM 43.5494 -126.1894 55° Northeast 499 574 35,000  Level Seattle Center
Sun 10:05:21 PM 43.6306 -126.0361 54° Northeast 493 567 35,000  Level Seattle Center
Sun 10:06:22 PM 43.7056 -125.8725 58° Northeast 505 581 35,000  Level Seattle Center
Sun 10:07:23 PM 43.7836 -125.7136 56° Northeast 503 579 35,000  Level Seattle Center
Sun 10:08:24 PM 43.8617 -125.5564 55° Northeast 500 575 35,000  Level Seattle Center
Sun 10:09:24 PM 43.9547 -125.3639 56° Northeast 503 579 35,000  Level Seattle Center
Sun 10:10:25 PM 44.0317 -125.2036 56° Northeast 505 581 35,000  Level Seattle Center
Sun 10:11:26 PM 44.1089 -125.0439 56° Northeast 502 578 35,000  Level Seattle Center
Sun 10:12:27 PM 44.1853 -124.8831 56° Northeast 502 578 35,000  Level Seattle Center
Sun 10:13:28 PM 44.2617 -124.7219 56° Northeast 502 578 35,000  Level Seattle Center
Sun 10:14:29 PM 44.3400 -124.5628 55° Northeast 501 577 35,000 -50 Level Seattle Center
Sun 10:15:29 PM 44.4194 -124.4003 56° Northeast 501 577 34,900 -1,041 Descending Seattle Center
Sun 10:16:30 PM 44.4925 -124.2458 56° Northeast 495 570 32,900 -2,852 Descending Seattle Center
Sun 10:17:31 PM 44.5639 -124.0869 58° Northeast 486 559 29,100 -3,984 Descending Seattle Center
Sun 10:18:32 PM 44.6539 -123.9522 47° Northeast 480 552 24,800 -3,787 Descending Seattle Center
Sun 10:19:33 PM 44.7450 -123.8267 44° Northeast 464 534 21,400 -3,246 Descending Seattle Center
Sun 10:20:34 PM 44.8314 -123.7100 44° Northeast 438 504 18,200 -2,897 Descending Seattle Center
Sun 10:21:29 PM 44.9172 -123.5925 44° Northeast 414 476 15,800 -2,479 Descending Seattle Center
Sun 10:22:35 PM 44.9989 -123.4781 45° Northeast 406 467 13,200 -2,477 Descending Seattle Center
Sun 10:23:18 PM 45.0578 -123.3950 45° Northeast 378 435 11,300 -2,262 Descending Seattle Center
Sun 10:23:36 PM 45.0731 -123.3736 45° Northeast 387 445 10,900 -1,082 Descending Seattle Center
Sun 10:24:19 PM 45.1272 -123.2975 45° Northeast 346 398 10,200 -885 Descending Seattle Center
Sun 10:24:37 PM 45.1411 -123.2783 44° Northeast 358 412 10,000 -885 Descending Seattle Center
Sun 10:25:20 PM 45.1883 -123.2125 44° Northeast 295 339 9,300 -984 Descending Seattle Center
Sun 10:25:38 PM 45.2000 -123.1950 47° Northeast 328 377 9,000 -1,333 Descending Seattle Center
Sun 10:26:14 PM 45.2353 -123.1328 51° Northeast 283 326 8,100 -1,082 Descending Seattle Center
Sun 10:26:39 PM 45.2403 -123.0994 78° East 308 354 7,900 -109 Descending Seattle Center
Sun 10:27:09 PM 45.2494 -123.0292 79° East 286 329 8,000 100 Climbing Seattle Center
Sun 10:27:39 PM 45.2575 -122.9686 79° East 287 330 8,000 -300 Level Seattle Center
Sun 10:28:09 PM 45.2644 -122.9189 79° East 288 331 7,700 -984 Descending Seattle Center
Sun 10:28:40 PM 45.2717 -122.8567 81° East 287 330 7,000 -1,279 Descending Seattle Center
Sun 10:29:10 PM 45.2786 -122.8058 79° East 288 331 6,400 -1,279 Descending Seattle Center
Sun 10:29:41 PM 45.2867 -122.7486 79° East 284 327 5,700 -1,254 Descending Seattle Center
Sun 10:30:17 PM 45.3217 -122.7086 39° Northeast 275 316 5,000 -689 Descending Seattle Center
Sun 10:30:42 PM 45.3497 -122.6961 17° North 274 315 5,000  Level Seattle Center
Sun 10:31:17 PM 45.3914 -122.6775 17° North 260 299 5,000  Level Seattle Center
Sun 10:31:43 PM 45.4144 -122.6625 25° Northeast 249 287 5,000  Level Seattle Center
Sun 10:32:18 PM 45.4217 -122.6128 78° East 224 258 5,000  Level Seattle Center
Sun 10:32:43 PM 45.4144 -122.5711 104° East 230 265 5,000  Level Seattle Center
Sun 10:33:25 PM 45.4033 -122.5125 105° East 227 261 5,000  Level Seattle Center
Sun 10:33:44 PM 45.3983 -122.4833 104° East 230 265 5,000  Level Seattle Center
Sun 10:34:25 PM 45.3875 -122.4236 104° East 230 265 5,000  Level Seattle Center
Sun 10:34:45 PM 45.3833 -122.3961 102° East 230 265 5,000  Level Seattle Center
Sun 10:35:26 PM 45.3806 -122.3372 94° East 235 270 5,000 -98 Level Seattle Center
Sun 10:35:46 PM 45.3983 -122.3178 38° Northeast 236 272 4,900 -900 Descending Seattle Center
Sun 10:36:26 PM 45.4419 -122.3181 360° North 234 269 4,100 -1,000 Descending Seattle Center
Sun 10:36:46 PM 45.4606 -122.3208 354° North 226 260 3,900 -787 Descending Seattle Center
Sun 10:37:27 PM 45.4883 -122.3544 320° Northwest 189 217 3,300 -885 Descending Seattle Center
Sun 10:37:47 PM 45.5003 -122.3767 307° West 186 214 3,000 -655 Descending Seattle Center
Sun 10:38:22 PM 45.5111 -122.4128 293° West 175 201 2,700 -787 Descending Seattle Center
Sun 10:38:48 PM 45.5236 -122.4392 304° West 181 208 2,200 -1,100 Descending Seattle Center
Sun 10:39:22 PM 45.5364 -122.4733 298° West 179 206 1,600 -787 Descending Seattle Center
Sun 10:39:49 PM 45.5469 -122.4983 301° West 173 199 1,400 -716 Descending Seattle Center
Sun 10:40:29 PM 45.5592 -122.5319 297° West 143 165 800 -800 Descending Seattle Center
Sun 10:40:49 PM 45.5664 -122.5472 304° West 148 170 600 -689 Descending Seattle Center
Sun 10:41:30 PM 45.5800 -122.5819 299° West 144 166 100 -732 Descending Seattle Center
Sun 10:43:00 PM 45.5833 -122.5833 341° North  Level FlightAware Approximate
Sun 10:50:00 PM 45.5887 -122.5969 300° West  Level Estimated
Sun 10:51:00 PM 45.5887 -122.5969 North  Level Estimated

Login

Don't have an account? Register now (free) for customized features, flight alerts, and more!